createdAt,value
2019-05-15T00:00:49.017Z,9.72
2019-05-15T00:03:19.943Z,9.81
2019-05-15T00:05:49.503Z,9.96
2019-05-15T00:08:18.459Z,10.12
2019-05-15T00:10:48.415Z,10.18
2019-05-15T00:13:18.463Z,10.28
2019-05-15T00:15:48.140Z,10.30
2019-05-15T00:18:18.589Z,10.22
2019-05-15T00:20:49.705Z,10.21
2019-05-15T00:23:18.360Z,10.21
2019-05-15T00:25:48.741Z,10.23
2019-05-15T00:28:18.549Z,10.24
2019-05-15T00:30:48.158Z,10.16
2019-05-15T00:33:19.167Z,10.14
2019-05-15T00:35:48.564Z,10.11
2019-05-15T00:38:18.617Z,10.11
2019-05-15T00:40:49.601Z,10.14
2019-05-15T00:43:18.405Z,10.15
2019-05-15T00:45:48.838Z,10.16
2019-05-15T00:48:19.330Z,10.14
2019-05-15T00:50:48.558Z,9.77
2019-05-15T00:53:19.643Z,10.11
2019-05-15T00:55:48.621Z,9.93
2019-05-15T00:58:19.906Z,10.00
2019-05-15T01:00:48.636Z,10.01
2019-05-15T01:03:18.272Z,9.91
2019-05-15T01:05:48.085Z,9.75
2019-05-15T01:08:19.152Z,9.89
2019-05-15T01:10:48.854Z,9.82
2019-05-15T01:13:18.951Z,9.76
2019-05-15T01:15:48.931Z,9.70
2019-05-15T01:18:18.671Z,9.61
2019-05-15T01:20:49.276Z,9.78
2019-05-15T01:23:18.755Z,9.81
2019-05-15T01:25:48.238Z,9.76
2019-05-15T01:28:18.398Z,9.76
2019-05-15T01:30:48.698Z,9.76
2019-05-15T01:33:18.909Z,9.65
2019-05-15T01:35:48.762Z,9.58
2019-05-15T01:38:18.677Z,9.50
2019-05-15T01:40:48.510Z,9.61
2019-05-15T01:43:18.693Z,9.65
2019-05-15T01:45:48.311Z,9.60
2019-05-15T01:48:18.947Z,9.70
2019-05-15T01:50:49.209Z,9.69
2019-05-15T01:53:18.712Z,9.73
2019-05-15T01:55:48.340Z,9.59
2019-05-15T01:58:18.568Z,9.40
2019-05-15T02:00:48.372Z,9.58
2019-05-15T02:03:18.374Z,9.69
2019-05-15T02:05:48.095Z,9.69
2019-05-15T02:08:19.074Z,9.54
2019-05-15T02:10:49.417Z,9.53
2019-05-15T02:13:18.675Z,9.42
2019-05-15T02:15:48.254Z,9.36
2019-05-15T02:18:19.152Z,9.40
2019-05-15T02:20:49.417Z,9.35
2019-05-15T02:23:18.917Z,9.40
2019-05-15T02:25:48.210Z,9.56
2019-05-15T02:28:18.380Z,9.66
2019-05-15T02:30:50.347Z,9.69
2019-05-15T02:33:18.925Z,9.71
2019-05-15T02:35:50.069Z,9.72
2019-05-15T02:38:19.952Z,9.76
2019-05-15T02:40:49.369Z,9.87
2019-05-15T02:43:18.975Z,9.94
2019-05-15T02:45:50.955Z,10.05
2019-05-15T02:48:19.903Z,10.12
2019-05-15T02:50:50.125Z,10.17
2019-05-15T02:53:19.182Z,10.19
2019-05-15T02:55:49.497Z,10.25
2019-05-15T02:58:21.283Z,10.23
2019-05-15T03:00:53.117Z,10.23
2019-05-15T03:03:20.664Z,10.26
2019-05-15T03:05:49.948Z,10.08
2019-05-15T03:08:19.517Z,10.07
2019-05-15T03:10:49.648Z,10.02
2019-05-15T03:13:19.003Z,10.00
2019-05-15T03:15:48.864Z,9.96
2019-05-15T03:18:19.421Z,10.05
2019-05-15T03:20:50.104Z,10.04
2019-05-15T03:23:19.993Z,10.03
2019-05-15T03:25:49.262Z,9.89
2019-05-15T03:28:19.087Z,9.97
2019-05-15T03:31:14.703Z,9.91
2019-05-15T03:33:27.420Z,9.89
2019-05-15T03:35:54.199Z,9.81
2019-05-15T03:38:19.629Z,9.96
2019-05-15T03:40:49.853Z,9.73
2019-05-15T03:43:18.767Z,9.52
2019-05-15T03:45:49.272Z,9.70
2019-05-15T03:48:19.651Z,9.74
2019-05-15T03:50:49.079Z,9.85
2019-05-15T03:53:19.265Z,9.87
2019-05-15T03:55:48.934Z,10.00
2019-05-15T03:58:21.481Z,9.85
2019-05-15T04:00:49.748Z,9.84
2019-05-15T04:03:20.279Z,9.61
2019-05-15T04:05:49.506Z,9.62
2019-05-15T04:08:19.463Z,9.66
2019-05-15T04:10:48.919Z,9.60
2019-05-15T04:13:19.481Z,9.40
2019-05-15T04:15:50.318Z,9.28
2019-05-15T04:18:19.872Z,9.44
2019-05-15T04:20:49.461Z,9.58
2019-05-15T04:23:22.848Z,9.69
2019-05-15T04:25:53.377Z,9.89
2019-05-15T04:28:23.449Z,9.94
2019-05-15T04:30:52.121Z,9.90
2019-05-15T04:33:20.792Z,9.94
2019-05-15T04:35:49.813Z,9.95
2019-05-15T04:38:19.537Z,9.98
2019-05-15T04:40:50.026Z,10.09
2019-05-15T04:43:19.535Z,10.12
2019-05-15T04:45:49.761Z,10.33
2019-05-15T04:48:20.103Z,10.49
2019-05-15T04:50:49.812Z,10.66
2019-05-15T04:53:19.212Z,10.68
2019-05-15T04:55:49.113Z,10.82
2019-05-15T04:58:20.759Z,10.99
2019-05-15T05:00:53.168Z,11.30
2019-05-15T05:03:21.843Z,11.33
2019-05-15T05:05:51.028Z,11.48
2019-05-15T05:08:20.661Z,11.55
2019-05-15T05:10:49.715Z,11.57
2019-05-15T05:13:19.983Z,11.66
2019-05-15T05:15:50.110Z,11.57
2019-05-15T05:18:19.684Z,11.54
2019-05-15T05:20:48.785Z,11.63
2019-05-15T05:23:19.285Z,11.66
2019-05-15T05:25:49.183Z,11.52
2019-05-15T05:28:18.557Z,11.41
2019-05-15T05:30:48.389Z,11.17
2019-05-15T05:33:18.381Z,11.18
2019-05-15T05:35:48.451Z,11.23
2019-05-15T05:38:19.088Z,11.46
2019-05-15T05:40:49.495Z,11.70
2019-05-15T05:43:19.059Z,11.80
2019-05-15T05:45:49.248Z,11.67
2019-05-15T05:48:18.969Z,11.39
2019-05-15T05:50:49.660Z,11.12
2019-05-15T05:53:21.189Z,11.17
2019-05-15T05:55:52.940Z,11.22
2019-05-15T05:58:20.413Z,11.13
2019-05-15T06:00:49.840Z,11.18
2019-05-15T06:03:19.541Z,11.30
2019-05-15T06:05:49.723Z,11.37
2019-05-15T06:08:19.865Z,11.51
2019-05-15T06:10:49.771Z,11.49
2019-05-15T06:13:19.819Z,11.66
2019-05-15T06:15:49.086Z,11.62
2019-05-15T06:18:19.752Z,11.63
2019-05-15T06:20:49.798Z,11.66
2019-05-15T06:23:24.875Z,11.67
2019-05-15T06:25:50.267Z,11.46
2019-05-15T06:28:20.351Z,11.38
2019-05-15T06:30:49.339Z,11.39
2019-05-15T06:33:18.850Z,11.41
2019-05-15T06:35:49.418Z,11.42
2019-05-15T06:38:19.508Z,11.55
2019-05-15T06:40:49.175Z,11.59
2019-05-15T06:43:19.135Z,11.63
2019-05-15T06:45:49.172Z,11.88
2019-05-15T06:48:18.755Z,12.06
2019-05-15T06:50:49.043Z,12.10
2019-05-15T06:53:19.282Z,12.21
2019-05-15T06:55:48.912Z,12.41
2019-05-15T06:58:19.084Z,12.29
2019-05-15T07:00:49.326Z,12.22
2019-05-15T07:03:25.421Z,12.12
2019-05-15T07:05:50.284Z,12.19
2019-05-15T07:08:18.401Z,12.30
2019-05-15T07:10:48.614Z,12.41
2019-05-15T07:13:18.324Z,12.38
2019-05-15T07:15:49.397Z,12.44
2019-05-15T07:18:19.693Z,12.69
2019-05-15T07:20:49.247Z,12.84
2019-05-15T07:23:19.057Z,12.75
2019-05-15T07:25:49.661Z,12.64
2019-05-15T07:28:18.907Z,12.66
2019-05-15T07:30:49.334Z,12.55
2019-05-15T07:33:27.895Z,12.65
2019-05-15T07:35:49.631Z,12.64
2019-05-15T07:38:18.698Z,12.78
2019-05-15T07:40:55.457Z,12.86
2019-05-15T07:43:18.292Z,12.91
2019-05-15T07:45:54.021Z,13.19
2019-05-15T07:48:18.762Z,13.23
2019-05-15T07:50:49.793Z,13.54
2019-05-15T07:53:19.621Z,13.81
2019-05-15T07:55:50.545Z,14.19
2019-05-15T07:58:21.616Z,14.38
2019-05-15T08:00:50.137Z,14.31
2019-05-15T08:03:18.935Z,14.14
2019-05-15T08:05:58.283Z,14.01
2019-05-15T08:08:18.686Z,14.20
2019-05-15T08:10:49.026Z,14.32
2019-05-15T08:13:18.625Z,14.44
2019-05-15T08:15:48.772Z,14.44
2019-05-15T08:18:18.548Z,14.52
2019-05-15T08:20:48.925Z,14.60
2019-05-15T08:23:19.309Z,14.97
2019-05-15T08:25:48.850Z,15.11
2019-05-15T08:28:19.165Z,15.20
2019-05-15T08:30:49.453Z,15.35
2019-05-15T08:33:19.265Z,15.02
2019-05-15T08:35:51.566Z,15.01
2019-05-15T08:38:18.741Z,15.06
2019-05-15T08:40:49.001Z,15.49
2019-05-15T08:43:18.797Z,16.07
2019-05-15T08:45:49.579Z,16.70
2019-05-15T08:48:18.671Z,17.15
2019-05-15T08:50:48.640Z,17.45
2019-05-15T08:53:19.301Z,17.24
2019-05-15T08:55:49.655Z,17.55
2019-05-15T08:58:20.112Z,18.40
2019-05-15T09:00:52.422Z,18.54
2019-05-15T09:03:20.282Z,18.41
2019-05-15T09:05:49.040Z,18.14
2019-05-15T09:08:19.259Z,18.14
2019-05-15T09:10:50.257Z,18.51
2019-05-15T09:13:19.229Z,18.51
2019-05-15T09:15:49.287Z,18.76
2019-05-15T09:18:20.201Z,18.91
2019-05-15T09:20:49.466Z,18.81
2019-05-15T09:23:20.293Z,19.00
2019-05-15T09:25:49.718Z,19.52
2019-05-15T09:28:19.484Z,19.09
2019-05-15T09:30:48.863Z,19.16
2019-05-15T09:33:19.930Z,19.12
2019-05-15T09:35:49.299Z,19.30
2019-05-15T09:38:18.785Z,19.30
2019-05-15T09:40:50.186Z,18.33
2019-05-15T09:43:18.394Z,18.33
2019-05-15T09:45:49.239Z,18.40
2019-05-15T09:48:19.730Z,18.99
2019-05-15T09:50:49.302Z,19.23
2019-05-15T09:53:19.108Z,19.12
2019-05-15T09:55:49.382Z,18.64
2019-05-15T09:58:20.418Z,18.82
2019-05-15T10:00:52.044Z,19.04
2019-05-15T10:03:20.723Z,19.04
2019-05-15T10:05:49.538Z,18.40
2019-05-15T10:08:21.331Z,17.46
2019-05-15T10:10:49.164Z,17.48
2019-05-15T10:13:18.711Z,17.27
2019-05-15T10:15:50.894Z,17.40
2019-05-15T10:18:19.070Z,17.54
2019-05-15T10:20:48.413Z,17.39
2019-05-15T10:23:19.633Z,17.46
2019-05-15T10:25:48.579Z,17.61
2019-05-15T10:28:19.198Z,17.37
2019-05-15T10:30:49.683Z,17.26
2019-05-15T10:33:20.103Z,16.80
2019-05-15T10:35:49.299Z,16.59
2019-05-15T10:38:19.389Z,16.62
2019-05-15T10:41:00.054Z,17.69
2019-05-15T10:43:20.668Z,18.80
2019-05-15T10:45:50.206Z,18.70
2019-05-15T10:48:22.771Z,19.07
2019-05-15T10:50:51.435Z,19.04
2019-05-15T10:53:20.353Z,19.28
2019-05-15T10:55:49.683Z,19.47
2019-05-15T10:58:22.036Z,19.47
2019-05-15T11:00:49.589Z,20.13
2019-05-15T11:03:19.983Z,22.08
2019-05-15T11:05:50.437Z,23.02
2019-05-15T11:08:19.313Z,22.46
2019-05-15T11:10:49.460Z,22.93
2019-05-15T11:13:19.005Z,24.81
2019-05-15T11:15:49.111Z,25.50
2019-05-15T11:18:18.186Z,24.49
2019-05-15T11:20:48.484Z,23.51
2019-05-15T11:23:20.133Z,22.43
2019-05-15T11:25:48.965Z,22.29
2019-05-15T11:28:17.892Z,22.17
2019-05-15T11:30:48.944Z,21.43
2019-05-15T11:33:18.883Z,20.93
2019-05-15T11:35:58.006Z,20.60
2019-05-15T11:38:19.482Z,20.04
2019-05-15T11:40:48.540Z,19.58
2019-05-15T11:43:19.776Z,18.84
2019-05-15T11:45:50.864Z,18.23
2019-05-15T11:48:20.678Z,18.23
2019-05-15T11:50:49.617Z,18.14
2019-05-15T11:53:19.216Z,18.30
2019-05-15T11:55:48.497Z,18.32
2019-05-15T11:58:18.913Z,18.60
2019-05-15T12:00:49.087Z,18.40
2019-05-15T12:03:19.101Z,17.87
2019-05-15T12:05:48.237Z,17.51
2019-05-15T12:08:18.591Z,17.29
2019-05-15T12:10:47.322Z,16.90
2019-05-15T12:13:18.700Z,16.63
2019-05-15T12:15:48.435Z,16.41
2019-05-15T12:18:16.967Z,16.19
2019-05-15T12:20:48.324Z,16.03
2019-05-15T12:23:16.519Z,15.97
2019-05-15T12:25:48.496Z,15.83
2019-05-15T12:28:15.868Z,15.59
2019-05-15T12:30:48.680Z,15.23
2019-05-15T12:33:18.321Z,15.10
2019-05-15T12:35:50.236Z,14.99
2019-05-15T12:38:18.603Z,15.17
2019-05-15T13:00:51.547Z,16.47
2019-05-15T13:03:20.228Z,16.65
2019-05-15T13:05:48.967Z,16.90
2019-05-15T13:08:19.476Z,16.75
2019-05-15T13:10:48.817Z,16.71
2019-05-15T13:13:18.713Z,16.50
2019-05-15T13:15:48.241Z,16.19
2019-05-15T13:18:18.034Z,16.17
2019-05-15T13:20:48.972Z,16.13
2019-05-15T13:23:17.204Z,15.58
2019-05-15T13:25:48.144Z,15.35
2019-05-15T13:28:18.348Z,15.12
2019-05-15T13:30:48.959Z,15.13
2019-05-15T13:33:17.190Z,15.09
2019-05-15T13:35:45.886Z,15.00
2019-05-15T13:38:14.539Z,15.13
2019-05-15T13:40:43.321Z,15.00
2019-05-15T13:43:12.006Z,14.97
2019-05-15T13:45:40.686Z,14.86
2019-05-15T13:48:09.379Z,14.89
2019-05-15T13:50:40.428Z,14.88
2019-05-15T13:53:11.138Z,14.81
2019-05-15T13:55:42.833Z,14.78
2019-05-15T13:58:10.956Z,14.78
2019-05-15T14:00:39.726Z,14.79
2019-05-15T14:03:09.360Z,14.67
2019-05-15T14:05:38.795Z,14.63
2019-05-15T14:08:07.650Z,14.57
2019-05-15T14:10:38.656Z,14.85
2019-05-15T14:13:06.848Z,15.21
2019-05-15T14:15:38.031Z,15.61
2019-05-15T14:18:08.384Z,15.99
2019-05-15T14:20:38.641Z,16.22
2019-05-15T14:23:08.697Z,16.53
2019-05-15T14:25:38.791Z,18.40
2019-05-15T14:28:08.907Z,21.10
2019-05-15T14:30:37.951Z,21.95
2019-05-15T14:33:08.572Z,21.62
2019-05-15T14:35:37.936Z,21.13
2019-05-15T14:38:10.177Z,20.69
2019-05-15T14:40:37.494Z,19.64
2019-05-15T14:43:08.894Z,19.39
2019-05-15T14:45:38.832Z,18.91
2019-05-15T14:48:08.910Z,18.64
2019-05-15T14:50:38.438Z,18.35
2019-05-15T14:53:09.551Z,18.20
2019-05-15T14:55:44.034Z,18.77
2019-05-15T14:58:08.545Z,18.40
2019-05-15T15:00:41.228Z,18.63
2019-05-15T15:03:09.769Z,18.35
2019-05-15T15:05:38.811Z,18.35
2019-05-15T15:08:18.479Z,17.59
2019-05-15T15:10:38.592Z,16.94
2019-05-15T15:13:09.373Z,16.64
2019-05-15T15:15:38.174Z,16.50
2019-05-15T15:18:08.359Z,16.33
2019-05-15T15:20:38.079Z,16.64
2019-05-15T15:23:08.438Z,17.98
2019-05-15T15:25:39.793Z,18.85
2019-05-15T15:28:08.620Z,18.57
2019-05-15T15:30:38.509Z,18.06
2019-05-15T15:33:08.580Z,17.61
2019-05-15T15:35:38.345Z,17.15
2019-05-15T15:38:12.711Z,16.99
2019-05-15T15:40:38.810Z,17.90
2019-05-15T15:43:09.044Z,18.41
2019-05-15T15:45:39.100Z,19.04
2019-05-15T15:48:08.675Z,18.93
2019-05-15T15:50:38.365Z,18.30
2019-05-15T15:53:08.834Z,18.81
2019-05-15T15:55:38.775Z,18.76
2019-05-15T15:58:08.754Z,18.46
2019-05-15T16:00:38.708Z,18.01
2019-05-15T16:03:08.448Z,17.61
2019-05-15T16:05:38.383Z,17.29
2019-05-15T16:08:08.490Z,16.55
2019-05-15T16:10:37.925Z,16.27
2019-05-15T16:13:09.183Z,16.07
2019-05-15T16:15:38.477Z,15.95
2019-05-15T16:18:09.011Z,15.71
2019-05-15T16:20:39.576Z,15.57
2019-05-15T16:23:08.767Z,15.38
2019-05-15T16:25:38.527Z,15.26
2019-05-15T16:28:08.830Z,15.16
2019-05-15T16:30:50.263Z,15.04
2019-05-15T16:33:09.521Z,15.04
2019-05-15T16:35:38.718Z,15.02
2019-05-15T16:38:09.276Z,14.92
2019-05-15T16:40:38.392Z,14.89
2019-05-15T16:43:07.253Z,14.88
2019-05-15T16:45:38.569Z,14.91
2019-05-15T16:48:06.454Z,14.91
2019-05-15T16:50:35.139Z,14.90
2019-05-15T16:53:03.821Z,14.95
2019-05-15T16:55:32.620Z,14.99
2019-05-15T16:58:01.342Z,15.01
2019-05-15T17:00:30.193Z,14.97
2019-05-15T17:03:08.993Z,14.87
2019-05-15T17:05:29.309Z,14.77
2019-05-15T17:07:58.482Z,14.74
2019-05-15T17:10:28.202Z,14.88
2019-05-15T17:12:58.296Z,14.84
2019-05-15T17:15:27.976Z,14.99
2019-05-15T17:17:58.349Z,15.04
2019-05-15T17:20:28.472Z,15.10
2019-05-15T17:22:57.944Z,15.03
2019-05-15T17:25:26.942Z,15.02
2019-05-15T17:27:55.619Z,15.06
2019-05-15T17:30:24.406Z,15.11
2019-05-15T17:32:53.151Z,15.08
2019-05-15T17:35:21.830Z,14.98
2019-05-15T17:37:50.509Z,14.89
2019-05-15T17:40:19.250Z,14.81
2019-05-15T17:42:49.277Z,14.68
2019-05-15T17:45:19.314Z,14.63
2019-05-15T17:47:48.762Z,14.63
2019-05-15T17:50:19.044Z,14.68
2019-05-15T17:52:49.149Z,14.17
2019-05-15T17:55:18.422Z,14.58
2019-05-15T17:57:54.561Z,14.53
2019-05-15T18:00:19.284Z,14.40
2019-05-15T18:02:48.665Z,14.45
2019-05-15T18:05:18.893Z,14.45
2019-05-15T18:07:48.809Z,14.39
2019-05-15T18:10:18.788Z,14.41
2019-05-15T18:12:48.839Z,14.38
2019-05-15T18:15:18.308Z,14.25
2019-05-15T18:17:48.126Z,14.25
2019-05-15T18:20:24.925Z,14.17
2019-05-15T18:22:53.611Z,14.12
2019-05-15T18:25:22.412Z,14.07
2019-05-15T18:27:51.095Z,14.01
2019-05-15T18:30:20.698Z,14.10
2019-05-15T18:32:49.406Z,14.10
2019-05-15T18:35:18.769Z,14.01
2019-05-15T18:37:48.263Z,13.85
2019-05-15T18:40:18.962Z,13.68
2019-05-15T18:42:49.537Z,13.56
2019-05-15T18:45:18.812Z,13.42
2019-05-15T18:47:48.041Z,13.27
2019-05-15T18:50:17.479Z,13.16
2019-05-15T18:52:48.643Z,13.10
2019-05-15T18:55:18.396Z,13.10
2019-05-15T18:57:48.603Z,13.08
2019-05-15T19:00:18.593Z,13.00
2019-05-15T19:02:47.539Z,12.91
2019-05-15T19:05:18.548Z,12.78
2019-05-15T19:07:48.716Z,12.66
2019-05-15T19:10:20.612Z,12.75
2019-05-15T19:12:49.268Z,12.78
2019-05-15T19:15:19.137Z,12.69
2019-05-15T19:17:47.907Z,12.63
2019-05-15T19:20:18.960Z,12.62
2019-05-15T19:22:48.337Z,12.63
2019-05-15T19:25:18.005Z,12.65
2019-05-15T19:27:47.044Z,12.62
2019-05-15T19:30:18.998Z,12.49
2019-05-15T19:32:49.139Z,12.38
2019-05-15T19:35:18.599Z,12.37
2019-05-15T19:37:48.893Z,12.35
2019-05-15T19:40:18.733Z,12.28
2019-05-15T19:42:48.791Z,12.22
2019-05-15T19:45:18.142Z,12.08
2019-05-15T19:47:48.265Z,11.91
2019-05-15T19:50:18.095Z,11.87
2019-05-15T19:52:48.266Z,12.12
2019-05-15T19:55:17.987Z,12.23
2019-05-15T19:57:47.467Z,12.19
2019-05-15T20:00:18.659Z,12.09
2019-05-15T20:02:48.594Z,12.06
2019-05-15T20:05:18.317Z,12.01
2019-05-15T20:07:48.005Z,11.91
2019-05-15T20:10:18.639Z,12.04
2019-05-15T20:12:47.975Z,11.99
2019-05-15T20:15:19.058Z,11.95
2019-05-15T20:17:48.139Z,11.83
2019-05-15T20:20:18.677Z,11.68
2019-05-15T20:22:47.597Z,11.75
2019-05-15T20:25:18.346Z,11.80
2019-05-15T20:27:48.115Z,11.72
2019-05-15T20:30:18.087Z,11.71
2019-05-15T20:32:47.915Z,11.72
2019-05-15T20:35:17.095Z,11.68
2019-05-15T20:37:45.781Z,11.62
2019-05-15T20:40:15.345Z,11.60
2019-05-15T20:42:44.027Z,11.55
2019-05-15T20:45:12.908Z,11.42
2019-05-15T20:47:41.579Z,11.56
2019-05-15T20:50:10.964Z,11.51
2019-05-15T20:52:39.877Z,11.44
2019-05-15T20:55:09.670Z,11.42
2019-05-15T20:57:40.813Z,11.53
2019-05-15T21:00:11.178Z,11.48
2019-05-15T21:02:40.035Z,11.43
2019-05-15T21:05:09.194Z,11.33
2019-05-15T21:07:42.075Z,11.30
2019-05-15T21:10:09.461Z,11.38
2019-05-15T21:12:40.923Z,11.41
2019-05-15T21:15:10.790Z,11.32
2019-05-15T21:17:42.005Z,11.27
2019-05-15T21:20:10.165Z,11.32
2019-05-15T21:22:40.220Z,11.36
2019-05-15T21:25:10.970Z,11.38
2019-05-15T21:27:42.606Z,11.34
2019-05-15T21:30:11.185Z,11.31
2019-05-15T21:32:39.882Z,11.25
2019-05-15T21:35:09.474Z,11.22
2019-05-15T21:37:39.277Z,11.22
2019-05-15T21:40:09.024Z,11.21
2019-05-15T21:42:38.863Z,11.15
2019-05-15T21:45:14.193Z,11.14
2019-05-15T21:47:39.951Z,11.08
2019-05-15T21:50:09.321Z,11.11
2019-05-15T21:52:39.182Z,11.07
2019-05-15T21:55:09.833Z,10.98
2019-05-15T21:57:42.341Z,10.89
2019-05-15T22:00:31.182Z,10.90
2019-05-15T22:02:59.979Z,10.92
2019-05-15T22:05:30.346Z,10.96
2019-05-15T22:07:59.110Z,10.95
2019-05-15T22:10:28.785Z,10.96
2019-05-15T22:12:58.917Z,10.98
2019-05-15T22:15:29.189Z,10.92
2019-05-15T22:17:58.464Z,10.99
2019-05-15T22:20:30.116Z,11.08
2019-05-15T22:22:59.573Z,11.05
2019-05-15T22:25:29.334Z,11.01
2019-05-15T22:27:58.303Z,11.08
2019-05-15T22:30:29.918Z,11.06
2019-05-15T22:32:58.665Z,11.07
2019-05-15T22:35:29.406Z,11.02
2019-05-15T22:37:58.676Z,10.99
2019-05-15T22:40:28.996Z,11.00
2019-05-15T22:42:59.212Z,10.90
2019-05-15T22:45:28.808Z,10.82
2019-05-15T22:47:58.600Z,10.86
2019-05-15T22:50:28.180Z,10.87
2019-05-15T22:52:58.752Z,10.83
2019-05-15T22:55:29.036Z,10.83
2019-05-15T22:57:58.597Z,10.78
2019-05-15T23:00:29.102Z,10.80
2019-05-15T23:02:58.204Z,10.98
2019-05-15T23:05:31.400Z,10.97
2019-05-15T23:07:58.982Z,11.02
2019-05-15T23:10:29.219Z,11.04
2019-05-15T23:12:58.338Z,11.00
2019-05-15T23:15:28.163Z,11.03
2019-05-15T23:17:58.298Z,10.95
2019-05-15T23:20:28.506Z,10.97
2019-05-15T23:22:58.374Z,11.08
2019-05-15T23:25:28.961Z,11.08
2019-05-15T23:27:58.333Z,11.13
2019-05-15T23:30:28.892Z,11.10
2019-05-15T23:32:58.209Z,11.19
2019-05-15T23:35:35.513Z,11.22
2019-05-15T23:37:58.182Z,11.22
2019-05-15T23:40:28.728Z,11.30
2019-05-15T23:42:57.703Z,11.35
2019-05-15T23:45:28.759Z,11.37
2019-05-15T23:47:57.978Z,11.38
2019-05-15T23:50:28.813Z,11.49
2019-05-15T23:52:58.366Z,11.53
2019-05-15T23:55:28.574Z,11.55
2019-05-15T23:57:58.474Z,11.53
